< < Back
Terminal Aerodrome Forecast


Current Version              Previous Versions:   1  2  3  4  5  6  7  8  9  

Terminal Aerodrome Forecast

729
FTUS42 KGSP 171100
TAFAVL
TAF
KAVL 171127Z 1712/1812 34003KT P6SM SCT015 OVC025
      TEMPO 1712/1714 BKN015
     FM171600 34004KT P6SM BKN030
     FM171800 34005KT P6SM BKN040
     FM180300 00000KT P6SM FEW023
     FM180500 00000KT 3SM BR BKN012=

Latest METAR

369
SAUS70 KWBC 171700 RRK
MTRAVL
METAR KAVL 171654Z 13008KT 100V170 10SM SCT020 22/16 A3000 RMK AO2
SLP135 T02220161


USA.gov is the U.S. government's official web portal to all federal, state and local government web resources and services.